Sacramento, California
Traffic Map
Current Weather Conditions
Sacramento, California
Broken Clouds
Broken Clouds
54°
Feels Like: 54°
Wind Chill: 54° Ceiling: 1100
Heat Index: 54° Visibility: 10mi
Dew Point: 48° Wind: 9mph
Humidity: 82% Direction: 190° (S)
Pressure: 29.93in Gusts: 18mph
Raw Report DataKSAC 260801Z AUTO 19008G16KT 10SM BKN011 12/09 A2993 RMK AO2
Traffic Incident Summary
Active as of:
Severity:
Category:
InformationThere was an issue retrieving the traffic information for this location. Please try a different location or try again shortly.
Advertisements
Track Severe Weather on mobile